Time;durP1;ratioP1;P1;durP2;ratioP2;P2;SDS_P1;SDS_P2;PMS_P1;PMS_P2;Temp;Humidity;BMP_temperature;BMP_pressure;BME280_temperature;BME280_humidity;BME280_pressure;Samples;Min_cycle;Max_cycle;Signal;HPM_P1;HPM_P2
2023/11/24 00:00:43;;;;;;;;;;;16.10;68.60;;;;;;5084372;28;19936;-35
2023/11/24 00:03:09;;;;;;;;;;;16.10;68.60;;;;;;5083533;28;19909;-35
2023/11/24 00:05:35;;;;;;;;;;;16.10;68.70;;;;;;5059097;28;19912;-35
2023/11/24 00:08:03;;;;;;;;;;;16.10;68.70;;;;;;5086482;28;19979;-35
2023/11/24 00:10:29;;;;;;;;;;;16.10;68.60;;;;;;5084474;28;19908;-35
2023/11/24 00:12:55;;;;;;;;;;;16.10;68.60;;;;;;5084279;28;19920;-35
2023/11/24 00:15:21;;;;;;;;;;;16.10;68.60;;;;;;5084854;28;20277;-35
2023/11/24 00:17:47;;;;;;;;;;;16.00;68.60;;;;;;5058077;28;19912;-35
2023/11/24 00:20:16;;;;;;;;;;;16.00;68.60;;;;;;5092019;28;19913;-35
2023/11/24 00:22:42;;;;;;;;;;;16.00;68.60;;;;;;5084415;28;19936;-35
2023/11/24 00:25:09;;;;;;;;;;;16.00;68.60;;;;;;5083912;28;19912;-34
2023/11/24 00:27:35;;;;;;;;;;;16.00;68.60;;;;;;5060949;28;19912;-35
2023/11/24 00:30:04;;;;;;;;;;;16.00;68.60;;;;;;5082374;28;20042;-35
2023/11/24 00:32:30;;;;;;;;;;;16.00;68.70;;;;;;5083983;28;19916;-35
2023/11/24 00:34:56;;;;;;;;;;;16.00;68.70;;;;;;5083641;28;19935;-34
2023/11/24 00:37:22;;;;;;;;;;;15.90;68.70;;;;;;5083201;28;19908;-34
2023/11/24 00:39:50;;;;;;;;;;;15.90;68.70;;;;;;5083505;28;19943;-35
2023/11/24 00:42:16;;;;;;;;;;;15.90;68.70;;;;;;5083180;28;19919;-35
2023/11/24 00:44:42;;;;;;;;;;;15.90;68.70;;;;;;5083563;28;19920;-35
2023/11/24 00:47:08;;;;;;;;;;;15.90;68.70;;;;;;5083728;28;20000;-35
2023/11/24 00:49:34;;;;;;;;;;;15.90;68.70;;;;;;5083908;28;19979;-36
2023/11/24 00:52:01;;;;;;;;;;;15.90;68.80;;;;;;5082588;28;19955;-35
2023/11/24 00:54:26;;;;;;;;;;;15.90;68.80;;;;;;5083430;28;19919;-35
2023/11/24 00:56:53;;;;;;;;;;;15.80;68.70;;;;;;5083168;28;20733;-35
2023/11/24 00:59:18;;;;;;;;;;;15.90;68.80;;;;;;5083643;28;19919;-35
2023/11/24 01:01:44;;;;;;;;;;;15.90;68.80;;;;;;5083361;28;19909;-35
2023/11/24 01:04:10;;;;;;;;;;;15.90;68.80;;;;;;5083243;28;19924;-35
2023/11/24 01:06:36;;;;;;;;;;;15.80;68.80;;;;;;5083123;28;19998;-35
2023/11/24 01:09:04;;;;;;;;;;;15.80;68.80;;;;;;5082133;28;19979;-35
2023/11/24 01:11:30;;;;;;;;;;;15.80;68.80;;;;;;5085884;28;19912;-35
2023/11/24 01:13:56;;;;;;;;;;;15.80;68.90;;;;;;5085348;28;19920;-34
2023/11/24 01:16:23;;;;;;;;;;;15.80;68.80;;;;;;5082972;28;19916;-34
2023/11/24 01:18:49;;;;;;;;;;;15.80;68.90;;;;;;5064771;28;19919;-34
2023/11/24 01:21:17;;;;;;;;;;;15.80;68.90;;;;;;5082515;28;19912;-35
2023/11/24 01:23:43;;;;;;;;;;;15.70;68.90;;;;;;5082812;28;19912;-35
2023/11/24 01:26:11;;;;;;;;;;;15.70;68.90;;;;;;5081960;28;19919;-35
2023/11/24 01:28:38;;;;;;;;;;;15.70;69.00;;;;;;5082733;28;19912;-34
2023/11/24 01:31:04;;;;;;;;;;;15.70;69.00;;;;;;5082555;28;19915;-34
2023/11/24 01:33:30;;;;;;;;;;;15.70;69.00;;;;;;5082925;28;19947;-35
2023/11/24 01:35:57;;;;;;;;;;;15.70;69.10;;;;;;5082407;28;20353;-34
2023/11/24 01:38:23;;;;;;;;;;;15.70;69.10;;;;;;5081849;28;19912;-34
2023/11/24 01:40:49;;;;;;;;;;;15.60;69.10;;;;;;5064761;28;19966;-34
2023/11/24 01:43:15;;;;;;;;;;;15.60;69.10;;;;;;5082280;28;19920;-35
2023/11/24 01:45:42;;;;;;;;;;;15.60;69.10;;;;;;5082857;28;19908;-35
2023/11/24 01:48:08;;;;;;;;;;;15.70;69.10;;;;;;5082479;28;19912;-35
2023/11/24 01:50:34;;;;;;;;;;;15.60;69.00;;;;;;5098257;28;19908;-35
2023/11/24 01:53:00;;;;;;;;;;;15.60;69.10;;;;;;5081783;28;19963;-36
2023/11/24 01:55:26;;;;;;;;;;;15.60;69.10;;;;;;5082566;28;20376;-35
2023/11/24 01:57:52;;;;;;;;;;;15.60;69.20;;;;;;5082789;28;19943;-36
2023/11/24 02:00:18;;;;;;;;;;;15.60;69.20;;;;;;5083034;28;19912;-35
2023/11/24 02:02:44;;;;;;;;;;;15.60;69.20;;;;;;5082976;28;20379;-35
2023/11/24 02:05:11;;;;;;;;;;;15.50;69.20;;;;;;5083355;28;19919;-35
2023/11/24 02:07:37;;;;;;;;;;;15.60;69.30;;;;;;5083672;28;19920;-35
2023/11/24 02:10:03;;;;;;;;;;;15.50;69.20;;;;;;5082217;28;20035;-34
2023/11/24 02:12:29;;;;;;;;;;;15.50;69.30;;;;;;5082869;28;20002;-34
2023/11/24 02:14:55;;;;;;;;;;;15.50;69.30;;;;;;5082134;28;20007;-34
2023/11/24 02:17:21;;;;;;;;;;;15.50;69.30;;;;;;5082726;28;19913;-35
2023/11/24 02:19:47;;;;;;;;;;;15.50;69.30;;;;;;5082012;28;19935;-35
2023/11/24 02:22:13;;;;;;;;;;;15.50;69.30;;;;;;5079915;28;19913;-35
2023/11/24 02:24:38;;;;;;;;;;;15.50;69.30;;;;;;5084095;28;19912;-35
2023/11/24 02:27:05;;;;;;;;;;;15.50;69.30;;;;;;5091842;28;19908;-35
2023/11/24 02:29:32;;;;;;;;;;;15.50;69.30;;;;;;5085606;28;19918;-35
2023/11/24 02:31:58;;;;;;;;;;;15.50;69.30;;;;;;5083976;28;19980;-35
2023/11/24 02:34:24;;;;;;;;;;;15.40;69.30;;;;;;5084945;28;19955;-35
2023/11/24 02:36:49;;;;;;;;;;;15.50;69.40;;;;;;5085821;28;19931;-35
2023/11/24 02:39:15;;;;;;;;;;;15.40;69.40;;;;;;5085653;28;20468;-35
2023/11/24 02:41:42;;;;;;;;;;;15.40;69.40;;;;;;5085364;28;20277;-35
2023/11/24 02:44:08;;;;;;;;;;;15.40;69.50;;;;;;5066360;28;20089;-35
2023/11/24 02:46:33;;;;;;;;;;;15.40;69.50;;;;;;5085542;28;19916;-34
2023/11/24 02:48:59;;;;;;;;;;;15.40;69.50;;;;;;5086095;28;19916;-34
2023/11/24 02:51:25;;;;;;;;;;;15.40;69.50;;;;;;5084920;28;19908;-35
2023/11/24 02:53:51;;;;;;;;;;;15.40;69.50;;;;;;5081326;28;19927;-35
2023/11/24 02:56:17;;;;;;;;;;;15.40;69.50;;;;;;5083949;28;19912;-36
2023/11/24 02:58:43;;;;;;;;;;;15.40;69.60;;;;;;5079880;28;19923;-35
2023/11/24 03:01:09;;;;;;;;;;;15.40;69.50;;;;;;5083456;28;20325;-35
2023/11/24 03:03:34;;;;;;;;;;;15.30;69.50;;;;;;5086537;28;19919;-34
2023/11/24 03:06:01;;;;;;;;;;;15.30;70.30;;;;;;5076658;28;19942;-35
2023/11/24 03:08:29;;;;;;;;;;;15.30;69.60;;;;;;5083461;28;20392;-34
2023/11/24 03:10:55;;;;;;;;;;;15.30;69.60;;;;;;5083903;28;19920;-35
2023/11/24 03:13:21;;;;;;;;;;;15.30;69.60;;;;;;5084167;28;19920;-36
2023/11/24 03:15:47;;;;;;;;;;;15.30;69.60;;;;;;5084632;28;19912;-35
2023/11/24 03:18:13;;;;;;;;;;;15.30;69.60;;;;;;5077327;28;19923;-35
2023/11/24 03:20:39;;;;;;;;;;;15.30;69.60;;;;;;5085514;28;19912;-35
2023/11/24 03:23:05;;;;;;;;;;;15.30;69.70;;;;;;5085136;28;19912;-35
2023/11/24 03:25:34;;;;;;;;;;;15.30;69.70;;;;;;5085058;28;19948;-34
2023/11/24 03:28:00;;;;;;;;;;;15.30;69.60;;;;;;5084679;28;20404;-35
2023/11/24 03:30:27;;;;;;;;;;;15.30;69.70;;;;;;5076681;28;20361;-34
2023/11/24 03:32:53;;;;;;;;;;;15.30;69.70;;;;;;5076871;28;19920;-36
2023/11/24 03:35:19;;;;;;;;;;;15.20;69.70;;;;;;5076582;28;20003;-34
2023/11/24 03:37:44;;;;;;;;;;;15.20;69.70;;;;;;5084967;28;19912;-34
2023/11/24 03:40:10;;;;;;;;;;;15.20;69.70;;;;;;5084471;28;19960;-34
2023/11/24 03:42:36;;;;;;;;;;;15.20;69.70;;;;;;5077127;28;19913;-34
2023/11/24 03:45:02;;;;;;;;;;;15.20;69.70;;;;;;5083784;28;20771;-34
2023/11/24 03:47:28;;;;;;;;;;;15.20;69.70;;;;;;5072071;28;19944;-34
2023/11/24 03:49:55;;;;;;;;;;;15.20;69.70;;;;;;5081087;28;19947;-34
2023/11/24 03:52:20;;;;;;;;;;;15.20;69.80;;;;;;5077103;28;19960;-34
2023/11/24 03:54:46;;;;;;;;;;;15.20;69.80;;;;;;5072504;28;20107;-34
2023/11/24 03:57:12;;;;;;;;;;;15.20;69.80;;;;;;5074800;28;19979;-34
2023/11/24 03:59:38;;;;;;;;;;;15.20;69.90;;;;;;5085079;28;20054;-35
2023/11/24 04:02:04;;;;;;;;;;;15.20;69.90;;;;;;5074751;28;19958;-34
2023/11/24 04:04:30;;;;;;;;;;;15.20;69.90;;;;;;5072245;28;19913;-36
2023/11/24 04:06:56;;;;;;;;;;;15.10;69.90;;;;;;5072131;28;19912;-34
2023/11/24 04:09:22;;;;;;;;;;;15.10;69.80;;;;;;5076056;28;19912;-34
2023/11/24 04:11:47;;;;;;;;;;;15.10;69.80;;;;;;5076518;28;19912;-39
2023/11/24 04:14:13;;;;;;;;;;;15.10;69.80;;;;;;5078172;28;20009;-35
2023/11/24 04:16:39;;;;;;;;;;;15.10;69.70;;;;;;5084043;28;20375;-34
2023/11/24 04:19:06;;;;;;;;;;;15.10;69.80;;;;;;5076424;28;19920;-34
2023/11/24 04:21:32;;;;;;;;;;;15.10;69.90;;;;;;5076381;28;19975;-34
2023/11/24 04:23:58;;;;;;;;;;;15.10;69.90;;;;;;5082647;28;19947;-34
2023/11/24 04:26:23;;;;;;;;;;;15.10;69.90;;;;;;5076432;28;19919;-34
2023/11/24 04:28:49;;;;;;;;;;;15.10;69.90;;;;;;5083563;28;19991;-34
2023/11/24 04:31:15;;;;;;;;;;;15.10;69.90;;;;;;5081147;28;19919;-34
2023/11/24 04:33:41;;;;;;;;;;;15.10;70.00;;;;;;5085483;28;19952;-35
2023/11/24 04:36:08;;;;;;;;;;;15.10;69.90;;;;;;5068734;28;20626;-34
2023/11/24 04:38:34;;;;;;;;;;;15.00;70.00;;;;;;5078450;28;19916;-35
2023/11/24 04:41:01;;;;;;;;;;;15.00;70.00;;;;;;5083567;28;19984;-34
2023/11/24 04:43:27;;;;;;;;;;;15.00;69.90;;;;;;5083241;28;19988;-34
2023/11/24 04:45:53;;;;;;;;;;;15.00;70.00;;;;;;5083252;28;19916;-35
2023/11/24 04:48:19;;;;;;;;;;;15.00;70.00;;;;;;5082608;28;20273;-35
2023/11/24 04:50:45;;;;;;;;;;;15.00;70.00;;;;;;5083734;28;19912;-35
2023/11/24 04:53:11;;;;;;;;;;;15.00;70.00;;;;;;5082942;28;19979;-35
2023/11/24 04:55:37;;;;;;;;;;;15.00;70.00;;;;;;5082632;28;19908;-35
2023/11/24 04:58:03;;;;;;;;;;;15.00;70.00;;;;;;5082487;28;19943;-35
2023/11/24 05:00:29;;;;;;;;;;;15.00;70.00;;;;;;5075859;28;19912;-35
2023/11/24 05:02:54;;;;;;;;;;;15.00;70.10;;;;;;5082876;28;19996;-35
2023/11/24 05:05:20;;;;;;;;;;;14.90;70.10;;;;;;5082892;28;19912;-35
2023/11/24 05:07:46;;;;;;;;;;;14.90;70.10;;;;;;5082139;28;19908;-35
2023/11/24 05:10:12;;;;;;;;;;;14.90;70.20;;;;;;5082791;28;19913;-35
2023/11/24 05:12:38;;;;;;;;;;;14.90;70.50;;;;;;5083337;28;19955;-35
2023/11/24 05:15:08;;;;;;;;;;;15.00;70.80;;;;;;5081476;28;19955;-35
2023/11/24 05:17:34;;;;;;;;;;;15.10;70.90;;;;;;5077244;28;19988;-39
2023/11/24 05:20:01;;;;;;;;;;;15.10;70.70;;;;;;5081819;28;20187;-36
2023/11/24 05:22:26;;;;;;;;;;;15.10;70.70;;;;;;5076134;28;19912;-35
2023/11/24 05:24:52;;;;;;;;;;;15.00;70.60;;;;;;5082000;28;19947;-35
2023/11/24 05:27:18;;;;;;;;;;;15.00;70.60;;;;;;5074965;28;19951;-34
2023/11/24 05:29:44;;;;;;;;;;;15.00;70.70;;;;;;5082318;28;19912;-34
2023/11/24 05:32:11;;;;;;;;;;;15.00;70.70;;;;;;5082761;28;19908;-34
2023/11/24 05:34:36;;;;;;;;;;;15.00;70.70;;;;;;5075513;28;19912;-34
2023/11/24 05:37:03;;;;;;;;;;;14.90;70.60;;;;;;5080898;28;20088;-34
2023/11/24 05:39:29;;;;;;;;;;;14.90;70.60;;;;;;5082365;28;19912;-35
2023/11/24 05:41:55;;;;;;;;;;;15.00;70.90;;;;;;5081814;28;19931;-34
2023/11/24 05:44:21;;;;;;;;;;;15.00;71.10;;;;;;5082265;28;19979;-35
2023/11/24 05:46:48;;;;;;;;;;;15.10;71.10;;;;;;5082007;28;19912;-35
2023/11/24 05:49:15;;;;;;;;;;;15.10;70.90;;;;;;5081532;28;19913;-35
2023/11/24 05:51:41;;;;;;;;;;;15.10;70.80;;;;;;5081684;28;19978;-34
2023/11/24 05:54:06;;;;;;;;;;;15.10;70.90;;;;;;5080877;28;19920;-34
2023/11/24 05:56:32;;;;;;;;;;;15.00;70.90;;;;;;5081978;28;19912;-34
2023/11/24 05:58:58;;;;;;;;;;;15.00;70.90;;;;;;5085129;28;19976;-34
2023/11/24 06:01:45;;;;;;;;;;;15.00;70.90;;;;;;5029296;28;19913;-34
2023/11/24 06:04:11;;;;;;;;;;;15.00;70.90;;;;;;5036392;28;19968;-34
2023/11/24 06:06:37;;;;;;;;;;;15.00;70.90;;;;;;5035738;28;19972;-34
2023/11/24 06:09:03;;;;;;;;;;;15.00;70.80;;;;;;5045042;28;20586;-34
2023/11/24 06:11:29;;;;;;;;;;;14.90;70.80;;;;;;5039346;28;20067;-34
2023/11/24 06:13:55;;;;;;;;;;;14.90;70.80;;;;;;5038476;28;19921;-34
2023/11/24 06:16:21;;;;;;;;;;;14.90;70.70;;;;;;5045200;28;19913;-34
2023/11/24 06:18:47;;;;;;;;;;;14.90;70.80;;;;;;5039858;28;19909;-34
2023/11/24 06:21:12;;;;;;;;;;;14.90;71.00;;;;;;5044459;28;19981;-35
2023/11/24 06:23:39;;;;;;;;;;;15.00;71.30;;;;;;5039052;28;19915;-34
2023/11/24 06:26:07;;;;;;;;;;;15.10;71.20;;;;;;5038164;28;19941;-34
2023/11/24 06:28:33;;;;;;;;;;;15.10;71.00;;;;;;5029090;28;20507;-34
2023/11/24 06:31:00;;;;;;;;;;;15.00;70.90;;;;;;5043081;28;19982;-35
2023/11/24 06:33:26;;;;;;;;;;;15.00;70.90;;;;;;5045253;28;19921;-34
2023/11/24 06:35:55;;;;;;;;;;;15.00;71.00;;;;;;5059277;28;19909;-34
2023/11/24 06:38:21;;;;;;;;;;;15.00;71.10;;;;;;5065531;28;20011;-34
2023/11/24 06:40:47;;;;;;;;;;;15.00;71.00;;;;;;5088229;28;19916;-34
2023/11/24 06:43:12;;;;;;;;;;;15.00;71.00;;;;;;5087682;28;19917;-34
2023/11/24 06:45:38;;;;;;;;;;;14.90;70.90;;;;;;5088509;28;19908;-35
2023/11/24 06:48:05;;;;;;;;;;;14.90;71.00;;;;;;5088119;28;19943;-34
2023/11/24 06:50:31;;;;;;;;;;;14.90;71.00;;;;;;5088403;28;19959;-34
2023/11/24 06:52:57;;;;;;;;;;;14.90;70.90;;;;;;5087775;28;19920;-34
2023/11/24 06:55:23;;;;;;;;;;;14.90;71.10;;;;;;5088327;28;19920;-34
2023/11/24 06:57:49;;;;;;;;;;;15.00;71.40;;;;;;5088955;28;19909;-34
2023/11/24 07:00:17;;;;;;;;;;;15.10;71.40;;;;;;5089767;28;19919;-35
2023/11/24 07:02:46;;;;;;;;;;;15.10;71.20;;;;;;5088513;28;19912;-35
2023/11/24 07:05:12;;;;;;;;;;;15.10;71.10;;;;;;5088307;28;19916;-34
2023/11/24 07:07:41;;;;;;;;;;;15.00;71.00;;;;;;5087272;28;19919;-35
2023/11/24 07:10:07;;;;;;;;;;;15.00;71.10;;;;;;5086081;28;20340;-34
2023/11/24 07:12:33;;;;;;;;;;;15.00;71.10;;;;;;5084398;28;19916;-34
2023/11/24 07:15:03;;;;;;;;;;;15.00;71.10;;;;;;5084830;28;19923;-35
2023/11/24 07:17:31;;;;;;;;;;;15.00;71.10;;;;;;5084830;28;19943;-34
2023/11/24 07:19:57;;;;;;;;;;;14.90;71.10;;;;;;5084832;28;19908;-34
2023/11/24 07:22:24;;;;;;;;;;;14.90;71.00;;;;;;5085271;28;19912;-35
2023/11/24 07:24:51;;;;;;;;;;;14.90;71.10;;;;;;5067660;28;19920;-34
2023/11/24 07:27:17;;;;;;;;;;;15.00;71.40;;;;;;5084811;28;19983;-34
2023/11/24 07:29:43;;;;;;;;;;;15.10;71.40;;;;;;5085001;28;19912;-33
2023/11/24 07:32:11;;;;;;;;;;;15.10;71.20;;;;;;5084511;28;19912;-34
2023/11/24 07:34:37;;;;;;;;;;;15.00;71.10;;;;;;5084911;28;19916;-34
2023/11/24 07:37:03;;;;;;;;;;;15.00;71.10;;;;;;5084567;28;20454;-34
2023/11/24 07:39:29;;;;;;;;;;;15.00;71.20;;;;;;5085724;28;20475;-35
2023/11/24 07:41:55;;;;;;;;;;;15.00;71.20;;;;;;5084547;28;19912;-35
2023/11/24 07:44:22;;;;;;;;;;;15.00;71.20;;;;;;5084534;28;19924;-35
2023/11/24 07:46:48;;;;;;;;;;;14.90;71.10;;;;;;5084529;28;20429;-35
2023/11/24 07:49:14;;;;;;;;;;;14.90;71.10;;;;;;5084247;28;19947;-35
2023/11/24 07:51:40;;;;;;;;;;;14.90;71.10;;;;;;5084383;28;20035;-35
2023/11/24 07:54:06;;;;;;;;;;;14.90;71.00;;;;;;5083977;28;19920;-35
2023/11/24 07:56:34;;;;;;;;;;;14.90;71.10;;;;;;5084777;28;19976;-35
2023/11/24 07:59:00;;;;;;;;;;;14.90;71.00;;;;;;5082947;28;19912;-35
2023/11/24 08:01:26;;;;;;;;;;;14.90;71.20;;;;;;5084085;28;19922;-35
2023/11/24 08:03:53;;;;;;;;;;;15.00;71.40;;;;;;5059399;28;20734;-35
2023/11/24 08:06:19;;;;;;;;;;;15.10;71.40;;;;;;5066436;28;19924;-35
2023/11/24 08:08:44;;;;;;;;;;;15.10;71.20;;;;;;5084844;28;19912;-35
2023/11/24 08:11:31;;;;;;;;;;;15.00;71.10;;;;;;5084530;28;19908;-35
2023/11/24 08:13:57;;;;;;;;;;;15.00;71.30;;;;;;5041854;28;19928;-35
2023/11/24 08:16:23;;;;;;;;;;;15.00;71.30;;;;;;5042372;28;19917;-35
2023/11/24 08:18:50;;;;;;;;;;;15.00;71.20;;;;;;5041900;28;20000;-35
2023/11/24 08:21:16;;;;;;;;;;;15.00;71.30;;;;;;5041938;28;19909;-35
2023/11/24 08:23:41;;;;;;;;;;;14.90;71.20;;;;;;5042034;28;19912;-35
2023/11/24 08:26:10;;;;;;;;;;;14.90;71.20;;;;;;5041643;28;19913;-35
2023/11/24 08:28:36;;;;;;;;;;;14.90;71.20;;;;;;5041714;28;19913;-34
2023/11/24 08:31:02;;;;;;;;;;;14.90;71.10;;;;;;5038590;28;19909;-34
2023/11/24 08:33:27;;;;;;;;;;;14.80;71.10;;;;;;5041208;28;19921;-34
2023/11/24 08:35:54;;;;;;;;;;;14.80;71.20;;;;;;5041798;28;19916;-34
2023/11/24 08:38:20;;;;;;;;;;;15.00;71.50;;;;;;5040556;28;20020;-34
2023/11/24 08:40:46;;;;;;;;;;;15.00;71.30;;;;;;5041524;28;19913;-36
2023/11/24 08:43:12;;;;;;;;;;;15.00;71.10;;;;;;5038082;28;19921;-35
2023/11/24 08:45:38;;;;;;;;;;;15.00;71.20;;;;;;5041442;28;19984;-35
2023/11/24 08:48:04;;;;;;;;;;;15.00;71.30;;;;;;5041335;28;19947;-35
2023/11/24 08:50:31;;;;;;;;;;;14.90;71.20;;;;;;5052946;28;19912;-35
2023/11/24 08:52:57;;;;;;;;;;;14.90;71.30;;;;;;5082864;28;19932;-35
2023/11/24 08:55:23;;;;;;;;;;;14.90;71.30;;;;;;5057173;28;19912;-35
2023/11/24 08:57:49;;;;;;;;;;;14.90;71.30;;;;;;5082586;28;20011;-34
2023/11/24 09:00:15;;;;;;;;;;;14.90;71.40;;;;;;5087853;28;19912;-34
2023/11/24 09:02:41;;;;;;;;;;;15.00;71.50;;;;;;5083679;28;20003;-35
2023/11/24 09:05:08;;;;;;;;;;;15.00;71.40;;;;;;5081384;28;19912;-34
2023/11/24 09:07:33;;;;;;;;;;;15.00;71.20;;;;;;5082305;28;19924;-35
2023/11/24 09:10:02;;;;;;;;;;;15.00;71.30;;;;;;5081176;28;19912;-35
2023/11/24 09:12:28;;;;;;;;;;;15.00;71.30;;;;;;5082548;28;19913;-35
2023/11/24 09:14:54;;;;;;;;;;;14.90;71.30;;;;;;5082835;28;19955;-34
2023/11/24 09:17:22;;;;;;;;;;;14.90;71.30;;;;;;5081906;28;19912;-35
2023/11/24 09:19:49;;;;;;;;;;;14.90;71.30;;;;;;5083185;28;19920;-34
2023/11/24 09:22:15;;;;;;;;;;;15.00;71.50;;;;;;5081803;28;20012;-34
2023/11/24 09:24:41;;;;;;;;;;;15.00;71.50;;;;;;5082092;28;20296;-34
2023/11/24 09:27:07;;;;;;;;;;;15.10;71.40;;;;;;5063600;28;19909;-34
2023/11/24 09:29:33;;;;;;;;;;;15.00;71.20;;;;;;5082176;28;19919;-34
2023/11/24 09:31:59;;;;;;;;;;;15.00;71.30;;;;;;5081714;28;19912;-34
2023/11/24 09:34:25;;;;;;;;;;;15.00;71.30;;;;;;5074691;28;19927;-35
2023/11/24 09:36:51;;;;;;;;;;;15.00;71.30;;;;;;5082308;28;19959;-34
2023/11/24 09:39:17;;;;;;;;;;;14.90;71.30;;;;;;5081166;28;20011;-34
2023/11/24 09:41:46;;;;;;;;;;;14.90;71.30;;;;;;5082446;28;19913;-34
2023/11/24 09:44:12;;;;;;;;;;;14.90;71.20;;;;;;5082472;28;19995;-34
2023/11/24 09:46:38;;;;;;;;;;;14.90;71.20;;;;;;5082422;28;19954;-34
2023/11/24 09:49:05;;;;;;;;;;;14.90;71.20;;;;;;5055790;28;19919;-35
2023/11/24 09:51:32;;;;;;;;;;;14.90;71.40;;;;;;5097325;28;19913;-35
2023/11/24 09:53:59;;;;;;;;;;;15.00;71.50;;;;;;5082662;28;19923;-35
2023/11/24 09:56:25;;;;;;;;;;;15.00;71.30;;;;;;5063873;28;19996;-35
2023/11/24 09:58:50;;;;;;;;;;;15.00;71.20;;;;;;5082114;28;19908;-35
2023/11/24 10:01:18;;;;;;;;;;;15.00;71.20;;;;;;5081538;28;19909;-35
2023/11/24 10:03:45;;;;;;;;;;;15.00;71.30;;;;;;5083083;28;19919;-35
2023/11/24 10:06:11;;;;;;;;;;;15.00;71.30;;;;;;5082485;28;19913;-36
2023/11/24 10:08:37;;;;;;;;;;;14.90;71.30;;;;;;5051084;28;19923;-35
2023/11/24 10:11:12;;;;;;;;;;;14.90;71.20;;;;;;5080347;28;19916;-39
2023/11/24 10:13:39;;;;;;;;;;;14.90;71.20;;;;;;5082555;28;19924;-34
2023/11/24 10:16:06;;;;;;;;;;;14.90;71.40;;;;;;5082433;28;19919;-34
2023/11/24 10:18:32;;;;;;;;;;;15.00;71.50;;;;;;5082806;28;19908;-34
2023/11/24 10:20:59;;;;;;;;;;;15.10;71.50;;;;;;5082335;28;20015;-34
2023/11/24 10:23:29;;;;;;;;;;;15.10;71.30;;;;;;5059363;28;19948;-34
2023/11/24 10:25:59;;;;;;;;;;;15.00;71.30;;;;;;5082390;28;19916;-39
2023/11/24 10:28:25;;;;;;;;;;;15.00;71.30;;;;;;5071390;28;19940;-35
2023/11/24 10:30:52;;;;;;;;;;;15.00;71.30;;;;;;5099053;28;19915;-35
2023/11/24 10:33:20;;;;;;;;;;;15.00;71.30;;;;;;5102244;28;19947;-35
2023/11/24 10:35:46;;;;;;;;;;;14.90;71.30;;;;;;5102773;28;19934;-35
2023/11/24 10:38:13;;;;;;;;;;;14.90;71.30;;;;;;5101920;28;19974;-35
2023/11/24 10:40:39;;;;;;;;;;;14.90;71.20;;;;;;5083180;28;19919;-35
2023/11/24 10:43:06;;;;;;;;;;;14.90;71.30;;;;;;5100609;28;19955;-35
2023/11/24 10:45:32;;;;;;;;;;;15.00;71.50;;;;;;5103780;28;19949;-36
2023/11/24 10:48:01;;;;;;;;;;;15.10;72.20;;;;;;5105772;28;19904;-35
2023/11/24 10:50:27;;;;;;;;;;;15.10;71.30;;;;;;5099237;28;19912;-36
2023/11/24 10:52:59;;;;;;;;;;;15.00;71.20;;;;;;5109769;28;20002;-34
2023/11/24 10:55:25;;;;;;;;;;;15.00;71.30;;;;;;5107740;28;19908;-34
2023/11/24 10:57:51;;;;;;;;;;;15.00;71.30;;;;;;5105995;28;19914;-34
2023/11/24 11:00:20;;;;;;;;;;;15.00;71.30;;;;;;5079630;28;20650;-34
2023/11/24 11:02:47;;;;;;;;;;;14.90;71.30;;;;;;5105786;28;19904;-34
2023/11/24 11:05:17;;;;;;;;;;;14.90;71.30;;;;;;5105958;28;19915;-34
2023/11/24 11:08:03;;;;;;;;;;;14.90;71.20;;;;;;5105625;28;19908;-34
2023/11/24 11:10:31;;;;;;;;;;;14.90;71.30;;;;;;5098492;28;19912;-34
2023/11/24 11:12:57;;;;;;;;;;;14.90;71.40;;;;;;5079554;28;20627;-34
2023/11/24 11:15:24;;;;;;;;;;;15.00;71.60;;;;;;5105755;28;19927;-33
2023/11/24 11:18:10;;;;;;;;;;;15.10;71.40;;;;;;5105589;28;19912;-35
2023/11/24 11:20:40;;;;;;;;;;;15.10;71.30;;;;;;5099961;28;19954;-34
2023/11/24 11:23:08;;;;;;;;;;;15.10;71.30;;;;;;5105191;28;19915;-34
2023/11/24 11:25:35;;;;;;;;;;;15.00;71.30;;;;;;5105279;28;19912;-34
2023/11/24 11:28:20;;;;;;;;;;;15.00;71.40;;;;;;5104500;28;19904;-34
2023/11/24 11:30:49;;;;;;;;;;;15.00;71.40;;;;;;5105374;28;19911;-35
2023/11/24 11:33:15;;;;;;;;;;;15.00;71.40;;;;;;5104464;28;20356;-35
2023/11/24 11:35:47;;;;;;;;;;;14.90;71.30;;;;;;5105250;28;19915;-35
2023/11/24 11:38:14;;;;;;;;;;;14.90;71.30;;;;;;5103994;28;19912;-35
2023/11/24 11:40:44;;;;;;;;;;;14.90;71.30;;;;;;5105326;28;19911;-34
2023/11/24 11:43:12;;;;;;;;;;;14.90;71.30;;;;;;5104325;28;19920;-34
2023/11/24 11:45:48;;;;;;;;;;;15.00;71.50;;;;;;5105199;28;19912;-34
2023/11/24 11:48:16;;;;;;;;;;;15.10;71.50;;;;;;5104427;28;19970;-34
2023/11/24 11:50:54;;;;;;;;;;;15.10;71.30;;;;;;5105230;28;19947;-34
2023/11/24 11:53:20;;;;;;;;;;;15.10;71.30;;;;;;5104415;28;19978;-34
2023/11/24 11:55:47;;;;;;;;;;;15.00;71.30;;;;;;5104489;28;19919;-34
2023/11/24 11:58:13;;;;;;;;;;;15.00;71.30;;;;;;5104258;28;19916;-34
2023/11/24 12:00:39;;;;;;;;;;;15.00;71.30;;;;;;5105063;28;19979;-34
2023/11/24 12:03:06;;;;;;;;;;;14.90;71.40;;;;;;5104576;28;19919;-34
2023/11/24 12:05:32;;;;;;;;;;;15.00;71.40;;;;;;5104692;28;19916;-34
2023/11/24 12:07:58;;;;;;;;;;;14.90;71.30;;;;;;5102798;28;20258;-34
2023/11/24 12:10:29;;;;;;;;;;;14.90;71.40;;;;;;5104292;28;19938;-34
2023/11/24 12:12:54;;;;;;;;;;;15.00;71.60;;;;;;5103770;28;20466;-34
2023/11/24 12:15:20;;;;;;;;;;;15.20;72.30;;;;;;5104830;28;19920;-34
2023/11/24 12:17:53;;;;;;;;;;;15.10;71.40;;;;;;5104338;28;19908;-35
2023/11/24 12:20:19;;;;;;;;;;;15.10;71.40;;;;;;5104470;28;19908;-35
2023/11/24 12:22:45;;;;;;;;;;;15.10;71.50;;;;;;5103811;28;19915;-34
2023/11/24 12:25:12;;;;;;;;;;;15.10;71.50;;;;;;5101701;28;19908;-35
2023/11/24 12:27:41;;;;;;;;;;;15.00;71.50;;;;;;5099306;28;20283;-34
2023/11/24 12:30:10;;;;;;;;;;;15.00;71.40;;;;;;5103533;28;19929;-35
2023/11/24 12:32:37;;;;;;;;;;;15.00;71.50;;;;;;5074104;28;19916;-34
2023/11/24 12:35:07;;;;;;;;;;;15.00;71.50;;;;;;5102400;28;19915;-35
2023/11/24 12:37:32;;;;;;;;;;;15.00;71.40;;;;;;5103893;28;19912;-34
2023/11/24 12:39:59;;;;;;;;;;;14.90;71.30;;;;;;5103630;28;19930;-33
2023/11/24 12:42:28;;;;;;;;;;;15.10;71.70;;;;;;5096882;28;19912;-35
2023/11/24 12:44:55;;;;;;;;;;;15.20;71.70;;;;;;5103734;28;19995;-36
2023/11/24 12:47:24;;;;;;;;;;;15.10;71.50;;;;;;5096403;28;19912;-34
2023/11/24 12:50:06;;;;;;;;;;;15.10;71.30;;;;;;5103584;28;19912;-34
2023/11/24 12:52:32;;;;;;;;;;;15.10;71.50;;;;;;5097185;28;19976;-34
2023/11/24 12:54:58;;;;;;;;;;;15.10;71.50;;;;;;5104389;28;19971;-35
2023/11/24 12:57:24;;;;;;;;;;;15.10;71.50;;;;;;5103769;28;19916;-35
2023/11/24 12:59:50;;;;;;;;;;;15.00;71.40;;;;;;5103608;28;20003;-35
2023/11/24 13:02:16;;;;;;;;;;;15.00;71.40;;;;;;5105942;28;19912;-35
2023/11/24 13:04:42;;;;;;;;;;;15.00;71.40;;;;;;5103738;28;19912;-35
2023/11/24 13:07:08;;;;;;;;;;;15.00;71.40;;;;;;5101775;28;20375;-34
2023/11/24 13:09:34;;;;;;;;;;;15.00;71.40;;;;;;5102770;28;20010;-35
2023/11/24 13:12:03;;;;;;;;;;;15.00;71.60;;;;;;5102771;28;19967;-34
2023/11/24 13:14:28;;;;;;;;;;;15.10;71.60;;;;;;5103351;28;19927;-35
2023/11/24 13:16:54;;;;;;;;;;;15.20;72.30;;;;;;5103312;28;20018;-35
2023/11/24 13:19:22;;;;;;;;;;;15.20;71.50;;;;;;5103352;28;19912;-34
2023/11/24 13:21:52;;;;;;;;;;;15.20;71.50;;;;;;5103262;28;19912;-34
2023/11/24 13:24:18;;;;;;;;;;;15.10;71.50;;;;;;5103187;28;19919;-34
2023/11/24 13:26:48;;;;;;;;;;;15.10;71.50;;;;;;5103505;28;19916;-34
2023/11/24 13:29:14;;;;;;;;;;;15.10;71.50;;;;;;5102372;28;19962;-35
2023/11/24 13:31:44;;;;;;;;;;;15.00;71.50;;;;;;5103351;28;19908;-34
2023/11/24 13:34:12;;;;;;;;;;;15.00;71.50;;;;;;5102443;28;19955;-35
2023/11/24 13:36:40;;;;;;;;;;;15.00;71.50;;;;;;5103215;28;19912;-35
2023/11/24 13:39:12;;;;;;;;;;;15.00;71.50;;;;;;5087996;28;19947;-35
2023/11/24 13:41:39;;;;;;;;;;;15.00;71.50;;;;;;5090275;28;19995;-35
2023/11/24 13:44:05;;;;;;;;;;;15.00;71.40;;;;;;5085161;28;20041;-35
2023/11/24 13:46:33;;;;;;;;;;;15.00;71.40;;;;;;5096083;28;19908;-35
2023/11/24 13:48:59;;;;;;;;;;;15.00;71.40;;;;;;5095079;28;19912;-38
2023/11/24 13:51:25;;;;;;;;;;;15.00;71.60;;;;;;5091982;28;19912;-34
2023/11/24 13:53:51;;;;;;;;;;;15.10;71.70;;;;;;5089982;28;19920;-34
2023/11/24 13:56:18;;;;;;;;;;;15.20;71.50;;;;;;5066790;28;19912;-35
2023/11/24 13:58:44;;;;;;;;;;;15.10;71.40;;;;;;5090548;28;19970;-34
2023/11/24 14:01:10;;;;;;;;;;;15.20;71.50;;;;;;5094823;28;19908;-35
2023/11/24 14:03:36;;;;;;;;;;;15.10;71.50;;;;;;5094939;28;20380;-35
2023/11/24 14:06:03;;;;;;;;;;;15.10;71.50;;;;;;5101980;28;19919;-36
2023/11/24 14:08:28;;;;;;;;;;;15.10;71.50;;;;;;5095507;28;19912;-35
2023/11/24 14:10:54;;;;;;;;;;;15.10;71.50;;;;;;5102146;28;20481;-35
2023/11/24 14:13:21;;;;;;;;;;;15.10;71.40;;;;;;5098662;28;19982;-33